sensor_id;sensor_type;location;lat;lon;timestamp;P1;durP1;ratioP1;P2;durP2;ratioP2
44706;SDS011;30433;45.596;8.408;2022-09-09T05:59:45;4.07;;;2.42;;
44706;SDS011;30433;45.596;8.408;2022-09-09T06:05:47;4.10;;;2.42;;
44706;SDS011;30433;45.596;8.408;2022-09-09T06:11:57;6.68;;;2.47;;
44706;SDS011;30433;45.596;8.408;2022-09-09T06:18:01;7.97;;;3.10;;
44706;SDS011;30433;45.596;8.408;2022-09-09T06:24:03;4.88;;;2.30;;
44706;SDS011;30433;45.596;8.408;2022-09-09T06:30:07;6.30;;;2.60;;
44706;SDS011;30433;45.596;8.408;2022-09-09T06:36:14;6.30;;;2.67;;
44706;SDS011;30433;45.596;8.408;2022-09-09T06:42:18;5.35;;;2.50;;
44706;SDS011;30433;45.596;8.408;2022-09-09T06:48:20;3.63;;;2.13;;
44706;SDS011;30433;45.596;8.408;2022-09-09T06:54:24;5.15;;;2.30;;
44706;SDS011;30433;45.596;8.408;2022-09-09T07:00:26;5.60;;;2.25;;
44706;SDS011;30433;45.596;8.408;2022-09-09T07:06:29;3.35;;;2.10;;
44706;SDS011;30433;45.596;8.408;2022-09-09T07:12:34;3.88;;;2.08;;
44706;SDS011;30433;45.596;8.408;2022-09-09T07:18:36;5.75;;;2.13;;
44706;SDS011;30433;45.596;8.408;2022-09-09T07:24:38;3.53;;;2.30;;
44706;SDS011;30433;45.596;8.408;2022-09-09T07:30:42;6.10;;;1.70;;
44706;SDS011;30433;45.596;8.408;2022-09-09T07:36:44;4.78;;;2.08;;
44706;SDS011;30433;45.596;8.408;2022-09-09T07:42:46;3.55;;;2.17;;
44706;SDS011;30433;45.596;8.408;2022-09-09T07:48:50;5.50;;;2.00;;
44706;SDS011;30433;45.596;8.408;2022-09-09T07:54:54;3.83;;;1.92;;
44706;SDS011;30433;45.596;8.408;2022-09-09T08:00:57;4.28;;;1.88;;
44706;SDS011;30433;45.596;8.408;2022-09-09T08:07:00;5.70;;;2.10;;
44706;SDS011;30433;45.596;8.408;2022-09-09T08:13:03;3.42;;;2.05;;
44706;SDS011;30433;45.596;8.408;2022-09-09T08:19:05;4.00;;;1.60;;
44706;SDS011;30433;45.596;8.408;2022-09-09T08:31:13;3.50;;;1.60;;
44706;SDS011;30433;45.596;8.408;2022-09-09T08:37:17;3.28;;;1.55;;
44706;SDS011;30433;45.596;8.408;2022-09-09T08:43:21;5.22;;;1.77;;
44706;SDS011;30433;45.596;8.408;2022-09-09T08:49:33;4.97;;;1.55;;
44706;SDS011;30433;45.596;8.408;2022-09-09T08:55:47;2.33;;;1.60;;
44706;SDS011;30433;45.596;8.408;2022-09-09T09:01:56;3.00;;;1.50;;
44706;SDS011;30433;45.596;8.408;2022-09-09T09:08:08;3.90;;;1.58;;
44706;SDS011;30433;45.596;8.408;2022-09-09T09:14:17;3.08;;;1.58;;
44706;SDS011;30433;45.596;8.408;2022-09-09T13:42:53;4.82;;;2.60;;
44706;SDS011;30433;45.596;8.408;2022-09-09T13:49:18;5.85;;;2.97;;
44706;SDS011;30433;45.596;8.408;2022-09-09T14:02:20;4.50;;;2.55;;
44706;SDS011;30433;45.596;8.408;2022-09-09T14:08:24;5.40;;;2.40;;
44706;SDS011;30433;45.596;8.408;2022-09-09T14:14:28;3.50;;;2.90;;
44706;SDS011;30433;45.596;8.408;2022-09-09T14:27:29;4.60;;;2.75;;
44706;SDS011;30433;45.596;8.408;2022-09-09T14:54:15;5.55;;;2.85;;
44706;SDS011;30433;45.596;8.408;2022-09-09T15:27:59;4.68;;;2.63;;
44706;SDS011;30433;45.596;8.408;2022-09-09T15:34:01;4.45;;;2.47;;
44706;SDS011;30433;45.596;8.408;2022-09-09T15:40:05;4.57;;;2.63;;
44706;SDS011;30433;45.596;8.408;2022-09-09T15:46:22;4.00;;;2.65;;
44706;SDS011;30433;45.596;8.408;2022-09-09T15:52:30;3.67;;;2.75;;
44706;SDS011;30433;45.596;8.408;2022-09-09T16:05:52;3.60;;;2.25;;
44706;SDS011;30433;45.596;8.408;2022-09-09T16:11:55;3.83;;;2.58;;
44706;SDS011;30433;45.596;8.408;2022-09-09T16:17:58;4.18;;;2.45;;
44706;SDS011;30433;45.596;8.408;2022-09-09T16:30:58;4.85;;;2.38;;
44706;SDS011;30433;45.596;8.408;2022-09-09T16:58:30;6.50;;;2.15;;
44706;SDS011;30433;45.596;8.408;2022-09-09T17:11:29;4.13;;;1.80;;
44706;SDS011;30433;45.596;8.408;2022-09-09T17:23:35;3.78;;;1.90;;
44706;SDS011;30433;45.596;8.408;2022-09-09T17:29:38;5.55;;;2.38;;
44706;SDS011;30433;45.596;8.408;2022-09-09T17:35:44;3.42;;;2.03;;
44706;SDS011;30433;45.596;8.408;2022-09-09T17:48:45;11.10;;;3.28;;
44706;SDS011;30433;45.596;8.408;2022-09-09T18:08:24;4.68;;;2.60;;
44706;SDS011;30433;45.596;8.408;2022-09-09T18:21:25;6.32;;;2.60;;
44706;SDS011;30433;45.596;8.408;2022-09-09T18:27:30;6.57;;;2.97;;
44706;SDS011;30433;45.596;8.408;2022-09-09T18:40:30;3.85;;;2.85;;
44706;SDS011;30433;45.596;8.408;2022-09-09T18:46:35;3.42;;;2.58;;
44706;SDS011;30433;45.596;8.408;2022-09-09T18:52:40;6.10;;;2.90;;
44706;SDS011;30433;45.596;8.408;2022-09-09T18:58:43;6.13;;;3.55;;
44706;SDS011;30433;45.596;8.408;2022-09-09T19:04:49;4.70;;;2.92;;
44706;SDS011;30433;45.596;8.408;2022-09-09T19:10:51;6.03;;;2.63;;
44706;SDS011;30433;45.596;8.408;2022-09-09T20:45:07;3.35;;;2.42;;
44706;SDS011;30433;45.596;8.408;2022-09-09T20:51:15;4.70;;;2.70;;
44706;SDS011;30433;45.596;8.408;2022-09-09T21:25:03;3.42;;;2.17;;
44706;SDS011;30433;45.596;8.408;2022-09-09T21:38:03;2.90;;;2.13;;
44706;SDS011;30433;45.596;8.408;2022-09-09T21:44:07;8.07;;;2.22;;
44706;SDS011;30433;45.596;8.408;2022-09-09T21:50:10;5.07;;;1.90;;
44706;SDS011;30433;45.596;8.408;2022-09-09T21:56:14;5.35;;;2.10;;
44706;SDS011;30433;45.596;8.408;2022-09-09T22:02:19;2.50;;;2.00;;
44706;SDS011;30433;45.596;8.408;2022-09-09T22:35:55;5.55;;;2.50;;
44706;SDS011;30433;45.596;8.408;2022-09-09T22:41:57;4.93;;;2.35;;
44706;SDS011;30433;45.596;8.408;2022-09-09T22:48:02;4.00;;;2.42;;
44706;SDS011;30433;45.596;8.408;2022-09-09T23:01:17;3.50;;;2.10;;
44706;SDS011;30433;45.596;8.408;2022-09-09T23:07:20;5.13;;;2.20;;
44706;SDS011;30433;45.596;8.408;2022-09-09T23:20:20;8.27;;;2.20;;
44706;SDS011;30433;45.596;8.408;2022-09-09T23:26:25;3.03;;;1.50;;
44706;SDS011;30433;45.596;8.408;2022-09-09T23:32:28;3.13;;;1.77;;
44706;SDS011;30433;45.596;8.408;2022-09-09T23:59:17;4.57;;;1.60;;
